Time;durP1;ratioP1;P1;durP2;ratioP2;P2;SDS_P1;SDS_P2;PMS_P1;PMS_P2;Temp;Humidity;BMP_temperature;BMP_pressure;BME280_temperature;BME280_humidity;BME280_pressure;Samples;Min_cycle;Max_cycle;Signal;HPM_P1;HPM_P2
2019/10/31 00:00:01;;;;;;;30;22.5;;;;;;;5.62;86.29688;1009.249;;;;
2019/10/31 00:02:26;;;;;;;31.3;23.2;;;;;;;5.6;86.39551;1009.259;;;;
2019/10/31 00:04:51;;;;;;;30.5;23.1;;;;;;;5.63;86.24219;1009.271;;;;
2019/10/31 00:07:17;;;;;;;32.4;23.1;;;;;;;5.6;86.36133;1009.283;;;;
2019/10/31 00:09:42;;;;;;;32.2;22.9;;;;;;;5.62;86.25195;1009.248;;;;
2019/10/31 00:12:07;;;;;;;30.3;22.9;;;;;;;5.56;86.43359;1009.269;;;;
2019/10/31 00:14:32;;;;;;;31.1;23.2;;;;;;;5.56;86.54492;1009.274;;;;
2019/10/31 00:16:57;;;;;;;31.8;23.1;;;;;;;5.53;86.63184;1009.287;;;;
2019/10/31 00:19:22;;;;;;;29.6;22.2;;;;;;;5.52;86.71875;1009.306;;;;
2019/10/31 00:21:47;;;;;;;31.2;23.5;;;;;;;5.45;87.07715;1009.251;;;;
2019/10/31 00:24:13;;;;;;;32.1;23.1;;;;;;;5.45;87.13379;1009.264;;;;
2019/10/31 00:26:38;;;;;;;32.3;23.5;;;;;;;5.45;87.03223;1009.275;;;;
2019/10/31 00:29:03;;;;;;;30.4;22.9;;;;;;;5.46;86.91113;1009.273;;;;
2019/10/31 00:31:28;;;;;;;31.4;22.4;;;;;;;5.44;86.92871;1009.262;;;;
2019/10/31 00:33:53;;;;;;;32.2;22.7;;;;;;;5.47;86.88867;1009.238;;;;
2019/10/31 00:36:18;;;;;;;32.5;22.6;;;;;;;5.47;86.85449;1009.222;;;;
2019/10/31 00:38:44;;;;;;;31.4;22.4;;;;;;;5.48;86.7998;1009.218;;;;
2019/10/31 00:41:09;;;;;;;30.9;22.1;;;;;;;5.49;86.67871;1009.239;;;;
2019/10/31 00:43:34;;;;;;;32.3;22.6;;;;;;;5.49;86.68848;1009.273;;;;
2019/10/31 00:45:59;;;;;;;31.7;22;;;;;;;5.45;86.90723;1009.223;;;;
2019/10/31 00:48:24;;;;;;;30;21.7;;;;;;;5.49;86.81445;1009.282;;;;
2019/10/31 00:50:49;;;;;;;30.6;22.4;;;;;;;5.4;87.14746;1009.234;;;;
2019/10/31 00:53:15;;;;;;;30.7;21.9;;;;;;;5.47;86.87695;1009.183;;;;
2019/10/31 00:55:40;;;;;;;31.7;22;;;;;;;5.48;86.7334;1009.182;;;;
2019/10/31 00:58:05;;;;;;;31;22.2;;;;;;;5.43;86.9375;1009.213;;;;
2019/10/31 01:00:30;;;;;;;30.9;22.5;;;;;;;5.46;87.17188;1009.213;;;;
2019/10/31 01:02:55;;;;;;;32;21.8;;;;;;;5.44;87.06543;1009.217;;;;
2019/10/31 01:05:20;;;;;;;33.1;23.3;;;;;;;5.37;87.25488;1009.188;;;;
2019/10/31 01:07:45;;;;;;;31.8;22.7;;;;;;;5.35;87.4209;1009.195;;;;
2019/10/31 01:10:10;;;;;;;31.6;22;;;;;;;5.36;87.36426;1009.136;;;;
2019/10/31 01:12:35;;;;;;;33.2;22.6;;;;;;;5.29;87.75879;1009.108;;;;
2019/10/31 01:15:01;;;;;;;31.1;22.9;;;;;;;5.26;87.93164;1009.082;;;;
2019/10/31 01:17:26;;;;;;;32.7;23.4;;;;;;;5.24;88.09766;1009.163;;;;
2019/10/31 01:19:51;;;;;;;30.6;21.9;;;;;;;5.25;88.06543;1009.091;;;;
2019/10/31 01:23:04;;;;;;;32.6;23.3;;;;;;;5.19;88.29004;1009.096;;;;
2019/10/31 01:25:29;;;;;;;32.2;23.1;;;;;;;5.14;88.51855;1009.093;;;;
2019/10/31 01:27:55;;;;;;;33.6;23.5;;;;;;;5.06;88.94238;1009.09;;;;
2019/10/31 01:32:45;;;;;;;33.3;23.1;;;;;;;4.98;89.18555;1008.969;;;;
2019/10/31 01:35:10;;;;;;;33.2;23.3;;;;;;;4.93;89.45898;1008.956;;;;
2019/10/31 01:37:35;;;;;;;34.1;23.4;;;;;;;4.93;89.58301;1008.908;;;;
2019/10/31 01:40:00;;;;;;;33;23.4;;;;;;;4.92;89.66016;1008.871;;;;
2019/10/31 01:42:26;;;;;;;33.3;23;;;;;;;4.91;89.89355;1008.843;;;;
2019/10/31 01:45:01;;;;;;;32.9;23.5;;;;;;;4.93;89.70508;1008.76;;;;
2019/10/31 01:47:15;;;;;;;34;23.9;;;;;;;4.92;89.54688;1008.731;;;;
2019/10/31 01:49:40;;;;;;;34.9;24.5;;;;;;;4.92;89.51172;1008.685;;;;
2019/10/31 01:52:43;;;;;;;35.2;23.6;;;;;;;4.84;89.75391;1008.636;;;;
2019/10/31 01:54:30;;;;;;;33.5;23.8;;;;;;;4.81;89.99707;1008.623;;;;
2019/10/31 01:56:56;;;;;;;34.1;23.6;;;;;;;4.76;90.34668;1008.634;;;;
2019/10/31 01:59:21;;;;;;;35.4;24.3;;;;;;;4.66;90.78906;1008.604;;;;
2019/10/31 02:03:24;;;;;;;35.4;23.7;;;;;;;4.62;90.91699;1008.538;;;;
2019/10/31 02:05:49;;;;;;;35.3;23.7;;;;;;;4.6;90.99219;1008.497;;;;
2019/10/31 02:08:14;;;;;;;35.1;23.8;;;;;;;4.63;90.81738;1008.465;;;;
2019/10/31 02:10:39;;;;;;;35.7;23.5;;;;;;;4.61;90.74512;1008.449;;;;
2019/10/31 02:13:04;;;;;;;36.6;24.1;;;;;;;4.59;90.83203;1008.452;;;;
2019/10/31 02:15:30;;;;;;;34.3;23.7;;;;;;;4.53;91.12305;1008.454;;;;
2019/10/31 02:18:02;;;;;;;36.2;23.7;;;;;;;4.55;91.03906;1008.397;;;;
2019/10/31 02:20:37;;;;;;;35.6;24.8;;;;;;;4.61;90.63477;1008.353;;;;
2019/10/31 02:23:02;;;;;;;35.4;24.4;;;;;;;4.61;90.80176;1008.307;;;;
2019/10/31 02:25:38;;;;;;;34.8;24.2;;;;;;;4.62;90.64551;1008.294;;;;
2019/10/31 02:28:03;;;;;;;34.9;23.4;;;;;;;4.68;90.22852;1008.263;;;;
2019/10/31 02:30:28;;;;;;;34.1;23;;;;;;;4.7;90.01953;1008.21;;;;
2019/10/31 02:32:54;;;;;;;34.2;22.8;;;;;;;4.72;89.85352;1008.216;;;;
2019/10/31 02:35:19;;;;;;;34.7;22.8;;;;;;;4.69;89.87988;1008.237;;;;
2019/10/31 02:37:44;;;;;;;34.9;23.8;;;;;;;4.61;90.2373;1008.153;;;;
2019/10/31 02:40:19;;;;;;;36.4;23.7;;;;;;;4.6;90.20117;1008.14;;;;
2019/10/31 02:42:44;;;;;;;34.4;23.9;;;;;;;4.63;89.99512;1008.18;;;;
2019/10/31 02:45:09;;;;;;;37.2;24.2;;;;;;;4.67;89.89844;1008.213;;;;
2019/10/31 02:47:34;;;;;;;35.9;23.8;;;;;;;4.64;89.81445;1008.201;;;;
2019/10/31 02:49:59;;;;;;;34.8;23.5;;;;;;;4.65;89.7373;1008.18;;;;
2019/10/31 02:52:25;;;;;;;34.1;23;;;;;;;4.6;89.97559;1008.14;;;;
2019/10/31 02:54:50;;;;;;;34.2;22.6;;;;;;;4.57;89.93457;1008.181;;;;
2019/10/31 02:57:16;;;;;;;35.4;23.1;;;;;;;4.56;89.81934;1008.105;;;;
2019/10/31 02:59:41;;;;;;;35.3;23.8;;;;;;;4.54;89.94141;1008.127;;;;
2019/10/31 03:02:06;;;;;;;35.1;23.7;;;;;;;4.57;89.86816;1008.122;;;;
2019/10/31 03:04:31;;;;;;;33.7;22.6;;;;;;;4.56;89.77441;1008.101;;;;
2019/10/31 03:06:56;;;;;;;35.2;23;;;;;;;4.58;89.64453;1008.038;;;;
2019/10/31 03:09:22;;;;;;;34.9;22.9;;;;;;;4.6;89.4209;1008.047;;;;
2019/10/31 03:11:47;;;;;;;34.1;22.8;;;;;;;4.51;89.68555;1008.011;;;;
2019/10/31 03:14:12;;;;;;;35;22.9;;;;;;;4.45;89.92285;1008.049;;;;
2019/10/31 03:16:37;;;;;;;35.8;23.6;;;;;;;4.44;89.97559;1008.047;;;;
2019/10/31 03:19:04;;;;;;;34.7;22.7;;;;;;;4.42;90.11816;1008.034;;;;
2019/10/31 03:21:27;;;;;;;34;23.1;;;;;;;4.34;90.36035;1008.025;;;;
2019/10/31 03:23:52;;;;;;;35.9;24;;;;;;;4.29;90.56348;1008.103;;;;
2019/10/31 03:26:17;;;;;;;35.4;22.9;;;;;;;4.25;90.73633;1008.061;;;;
2019/10/31 03:28:42;;;;;;;35.7;23.7;;;;;;;4.23;90.77734;1008.111;;;;
2019/10/31 03:31:08;;;;;;;34.7;22.9;;;;;;;4.25;90.63672;1008.163;;;;
2019/10/31 03:33:33;;;;;;;35.3;23.1;;;;;;;4.17;90.76465;1008.188;;;;
2019/10/31 03:35:58;;;;;;;35.6;22.9;;;;;;;4.13;90.99316;1008.161;;;;
2019/10/31 03:38:23;;;;;;;35.6;23;;;;;;;4.09;91.0625;1008.152;;;;
2019/10/31 03:40:48;;;;;;;35.7;23.8;;;;;;;4.06;91.28223;1008.152;;;;
2019/10/31 03:43:13;;;;;;;35.7;23.8;;;;;;;4.03;91.27734;1008.171;;;;
2019/10/31 03:45:38;;;;;;;35.9;23.2;;;;;;;4.03;91.2207;1008.15;;;;
2019/10/31 03:48:03;;;;;;;34.8;22.9;;;;;;;4.09;90.88281;1008.133;;;;
2019/10/31 03:50:28;;;;;;;35.8;23.3;;;;;;;4.06;90.83203;1008.164;;;;
2019/10/31 03:52:58;;;;;;;35.2;22.9;;;;;;;4.04;90.85059;1008.096;;;;
2019/10/31 03:55:23;;;;;;;33;22.6;;;;;;;4.04;90.88379;1008.096;;;;
2019/10/31 03:57:48;;;;;;;37.9;23.5;;;;;;;4;90.78613;1008.07;;;;
2019/10/31 04:02:27;;;;;;;33.9;22.9;;;;;;;3.99;90.71484;1008.098;;;;
2019/10/31 04:04:53;;;;;;;35.4;23.6;;;;;;;3.98;90.74707;1008.08;;;;
2019/10/31 04:07:18;;;;;;;36.4;24.1;;;;;;;3.96;90.79688;1008.051;;;;
2019/10/31 04:09:43;;;;;;;34.3;23.1;;;;;;;3.92;90.9043;1007.999;;;;
2019/10/31 04:12:08;;;;;;;34.3;22.5;;;;;;;3.89;91.06543;1007.978;;;;
2019/10/31 04:14:33;;;;;;;36.9;23.9;;;;;;;3.88;90.91699;1008.044;;;;
2019/10/31 04:16:58;;;;;;;35.8;23.5;;;;;;;3.83;91.15527;1008.088;;;;
2019/10/31 04:19:23;;;;;;;37.4;23.5;;;;;;;3.81;91.24219;1008.159;;;;
2019/10/31 04:21:49;;;;;;;35.3;23;;;;;;;3.81;91.26074;1008.158;;;;
2019/10/31 04:24:14;;;;;;;35.4;23.8;;;;;;;3.81;91.11816;1008.125;;;;
2019/10/31 04:26:39;;;;;;;35.7;23.1;;;;;;;3.74;91.41797;1008.141;;;;
2019/10/31 04:29:04;;;;;;;36.2;23.2;;;;;;;3.7;91.57715;1008.167;;;;
2019/10/31 04:31:29;;;;;;;36.6;23.6;;;;;;;3.69;91.54199;1008.167;;;;
2019/10/31 04:33:54;;;;;;;36.3;22.9;;;;;;;3.7;91.45313;1008.146;;;;
2019/10/31 04:36:19;;;;;;;36;23.6;;;;;;;3.77;91.05176;1008.134;;;;
2019/10/31 04:38:44;;;;;;;33.7;22.3;;;;;;;3.78;90.83984;1008.082;;;;
2019/10/31 04:41:09;;;;;;;36.7;23.1;;;;;;;3.76;90.82227;1008.032;;;;
2019/10/31 04:43:35;;;;;;;34.7;22.1;;;;;;;3.75;90.74219;1008.063;;;;
2019/10/31 04:46:00;;;;;;;34.7;22.3;;;;;;;3.74;90.68555;1008.08;;;;
2019/10/31 04:48:25;;;;;;;33.4;22;;;;;;;3.74;90.69531;1008.069;;;;
2019/10/31 04:50:50;;;;;;;35;23;;;;;;;3.73;90.73828;1008.069;;;;
2019/10/31 04:53:15;;;;;;;35.2;22;;;;;;;3.72;90.74707;1008.076;;;;
2019/10/31 04:55:40;;;;;;;33.4;22.1;;;;;;;3.72;90.68164;1008.084;;;;
2019/10/31 04:58:05;;;;;;;34.4;22;;;;;;;3.7;90.64258;1008.052;;;;
2019/10/31 05:00:30;;;;;;;33.6;21.4;;;;;;;3.72;90.45605;1008.034;;;;
2019/10/31 05:02:55;;;;;;;33.8;21.9;;;;;;;3.66;90.58984;1008.041;;;;
2019/10/31 05:05:20;;;;;;;32.7;21.8;;;;;;;3.69;90.33789;1007.987;;;;
2019/10/31 05:07:46;;;;;;;33;21.8;;;;;;;3.71;90.10352;1007.945;;;;
2019/10/31 05:10:11;;;;;;;35.2;21.6;;;;;;;3.75;89.79492;1007.897;;;;
2019/10/31 05:12:36;;;;;;;34.3;21.5;;;;;;;3.81;89.52734;1007.917;;;;
2019/10/31 05:15:01;;;;;;;33.3;21;;;;;;;3.77;89.60938;1007.945;;;;
2019/10/31 05:17:26;;;;;;;35.1;22.4;;;;;;;3.76;89.48145;1007.854;;;;
2019/10/31 05:19:51;;;;;;;34.1;21.5;;;;;;;3.76;89.29004;1007.869;;;;
2019/10/31 05:22:16;;;;;;;35.2;22.7;;;;;;;3.77;89.30371;1007.905;;;;
2019/10/31 05:24:41;;;;;;;32.5;21.9;;;;;;;3.75;89.24316;1007.86;;;;
2019/10/31 05:27:07;;;;;;;31.7;21.4;;;;;;;3.69;89.49121;1007.876;;;;
2019/10/31 05:29:32;;;;;;;33;21.6;;;;;;;3.67;89.49805;1007.892;;;;
2019/10/31 05:31:57;;;;;;;31.4;21;;;;;;;3.68;89.39746;1007.875;;;;
2019/10/31 05:34:22;;;;;;;34.1;21.7;;;;;;;3.66;89.44922;1007.881;;;;
2019/10/31 05:36:47;;;;;;;34.6;22.6;;;;;;;3.59;89.6709;1007.85;;;;
2019/10/31 05:39:12;;;;;;;31.9;21.2;;;;;;;3.53;89.83984;1007.886;;;;
2019/10/31 05:41:37;;;;;;;34.5;22.4;;;;;;;3.53;89.71582;1007.945;;;;
2019/10/31 05:44:02;;;;;;;34.1;21.9;;;;;;;3.51;89.87012;1007.865;;;;
2019/10/31 05:46:27;;;;;;;34.5;22.1;;;;;;;3.51;89.81348;1007.838;;;;
2019/10/31 05:48:53;;;;;;;33.9;22.1;;;;;;;3.48;89.83008;1007.815;;;;
2019/10/31 05:51:18;;;;;;;32.3;21.4;;;;;;;3.46;89.75879;1007.799;;;;
2019/10/31 05:53:43;;;;;;;32.9;21.7;;;;;;;3.48;89.7041;1007.806;;;;
2019/10/31 05:56:08;;;;;;;32.4;21.7;;;;;;;3.49;89.47168;1007.819;;;;
2019/10/31 05:58:33;;;;;;;32;20.9;;;;;;;3.45;89.44141;1007.884;;;;
2019/10/31 06:00:59;;;;;;;33.4;22.1;;;;;;;3.45;89.39453;1007.833;;;;
2019/10/31 06:03:24;;;;;;;32.6;21.2;;;;;;;3.42;89.65723;1007.821;;;;
2019/10/31 06:05:48;;;;;;;34;21.1;;;;;;;3.43;89.34375;1007.802;;;;
2019/10/31 06:08:13;;;;;;;33.3;21.7;;;;;;;3.43;89.35742;1007.788;;;;
2019/10/31 06:10:39;;;;;;;31.4;20.8;;;;;;;3.42;89.33301;1007.83;;;;
2019/10/31 06:13:04;;;;;;;31.5;20.5;;;;;;;3.42;89.29688;1007.827;;;;
2019/10/31 06:15:29;;;;;;;32.3;21;;;;;;;3.37;89.49023;1007.812;;;;
2019/10/31 06:17:54;;;;;;;33.1;21;;;;;;;3.43;89.21094;1007.881;;;;
2019/10/31 06:20:19;;;;;;;31.9;20.5;;;;;;;3.49;88.81836;1007.899;;;;
2019/10/31 06:22:44;;;;;;;31.2;20.5;;;;;;;3.49;88.77344;1007.907;;;;
2019/10/31 06:25:18;;;;;;;33.4;21.4;;;;;;;3.5;88.66309;1007.934;;;;
2019/10/31 06:27:43;;;;;;;35.6;21.8;;;;;;;3.51;88.7207;1007.908;;;;
2019/10/31 06:30:08;;;;;;;30.2;20;;;;;;;3.55;88.3457;1007.936;;;;
2019/10/31 06:32:33;;;;;;;32.6;20.8;;;;;;;3.58;88.27441;1007.966;;;;
2019/10/31 06:34:58;;;;;;;34;20.6;;;;;;;3.62;88.1123;1007.974;;;;
2019/10/31 06:37:23;;;;;;;34.2;20.9;;;;;;;3.65;87.8252;1008.002;;;;
2019/10/31 06:39:49;;;;;;;32.5;20.5;;;;;;;3.71;87.6377;1007.97;;;;
2019/10/31 06:42:14;;;;;;;32.4;20.9;;;;;;;3.73;87.51563;1007.941;;;;
2019/10/31 06:44:39;;;;;;;33.7;20.7;;;;;;;3.77;87.25391;1007.957;;;;
2019/10/31 06:47:04;;;;;;;32.9;20.6;;;;;;;3.82;87.07227;1007.98;;;;
2019/10/31 06:49:29;;;;;;;33.4;20.8;;;;;;;3.79;87.10059;1007.956;;;;
2019/10/31 06:51:54;;;;;;;35.6;21.1;;;;;;;3.8;87.06836;1007.98;;;;
2019/10/31 06:54:19;;;;;;;32.5;20.7;;;;;;;3.83;86.87109;1008.028;;;;
2019/10/31 06:56:45;;;;;;;31;20.5;;;;;;;3.78;86.85059;1008.015;;;;
2019/10/31 06:59:10;;;;;;;32.8;21.2;;;;;;;3.85;86.84277;1007.955;;;;
2019/10/31 07:01:35;;;;;;;31.2;20.6;;;;;;;3.89;86.66992;1007.951;;;;
2019/10/31 07:04:00;;;;;;;31.9;20.9;;;;;;;3.92;86.50586;1007.96;;;;
2019/10/31 07:06:25;;;;;;;31.6;20.1;;;;;;;4;85.99219;1007.991;;;;
2019/10/31 07:08:50;;;;;;;32;20.9;;;;;;;4.05;85.83398;1008.019;;;;
2019/10/31 07:11:15;;;;;;;31.7;20.9;;;;;;;4.13;85.625;1007.994;;;;
2019/10/31 07:13:40;;;;;;;31.4;20.4;;;;;;;4.24;85.27441;1008.025;;;;
2019/10/31 07:16:05;;;;;;;31.3;20.2;;;;;;;4.23;84.96973;1008.036;;;;
2019/10/31 07:18:30;;;;;;;33.9;20.9;;;;;;;4.32;84.82617;1008.012;;;;
2019/10/31 07:20:56;;;;;;;30.9;19.9;;;;;;;4.48;84.2373;1007.996;;;;
2019/10/31 07:23:21;;;;;;;29.8;19.5;;;;;;;4.54;83.82129;1007.987;;;;
2019/10/31 07:25:46;;;;;;;33.2;20.6;;;;;;;4.55;83.85645;1007.952;;;;
2019/10/31 07:28:11;;;;;;;29.9;19.6;;;;;;;4.68;83.39746;1007.949;;;;
2019/10/31 07:30:36;;;;;;;31.8;20.2;;;;;;;4.7;83.33398;1007.951;;;;
2019/10/31 07:33:01;;;;;;;31.1;20.3;;;;;;;4.74;83.23926;1007.985;;;;
2019/10/31 07:35:26;;;;;;;30.9;20.4;;;;;;;4.69;83.25098;1007.934;;;;
2019/10/31 07:37:51;;;;;;;32.9;20.6;;;;;;;4.75;83.06152;1007.85;;;;
2019/10/31 07:40:16;;;;;;;30.9;20;;;;;;;4.86;82.77637;1007.88;;;;
2019/10/31 07:42:41;;;;;;;32.9;20.1;;;;;;;4.98;82.30371;1007.913;;;;
2019/10/31 07:45:07;;;;;;;32.3;21.2;;;;;;;5.05;82.03418;1007.915;;;;
2019/10/31 07:47:31;;;;;;;30.3;19.8;;;;;;;5.13;81.84668;1007.933;;;;
2019/10/31 07:49:56;;;;;;;33.1;20;;;;;;;5.04;81.83887;1007.916;;;;
2019/10/31 07:52:22;;;;;;;30.3;20.2;;;;;;;5.19;81.71191;1007.961;;;;
2019/10/31 07:54:47;;;;;;;31.7;20.6;;;;;;;5.26;81.375;1007.995;;;;
2019/10/31 07:57:12;;;;;;;30.9;19.8;;;;;;;5.16;81.55762;1007.989;;;;
2019/10/31 07:59:37;;;;;;;31.3;19.9;;;;;;;5.48;80.47559;1008.031;;;;
2019/10/31 08:02:02;;;;;;;30.9;18.8;;;;;;;6.53;76.9082;1008.07;;;;
2019/10/31 08:04:27;;;;;;;27.3;18.9;;;;;;;6.69;75.16602;1008.099;;;;
2019/10/31 08:06:52;;;;;;;27.6;17.6;;;;;;;7.21;72.87305;1008.105;;;;
2019/10/31 08:09:17;;;;;;;27.3;17.7;;;;;;;7.5;71.51172;1008.122;;;;
2019/10/31 08:11:43;;;;;;;26.8;17.4;;;;;;;7.95;69.79102;1008.166;;;;
2019/10/31 08:14:08;;;;;;;26.8;18.3;;;;;;;8.22;69.02539;1008.151;;;;
2019/10/31 08:16:33;;;;;;;26.8;17.5;;;;;;;8.42;67.91797;1008.129;;;;
2019/10/31 08:18:58;;;;;;;24.8;16.9;;;;;;;8.75;66.80762;1008.088;;;;
2019/10/31 08:21:23;;;;;;;27.3;17.5;;;;;;;8.46;67.63867;1008.086;;;;
2019/10/31 08:23:48;;;;;;;24.2;16.9;;;;;;;8.94;66.12988;1008.067;;;;
2019/10/31 08:26:13;;;;;;;26.2;18.1;;;;;;;9.06;65.57715;1008.08;;;;
2019/10/31 08:28:38;;;;;;;26.5;16.9;;;;;;;9;65.37402;1008.029;;;;
2019/10/31 08:31:03;;;;;;;24.3;16.4;;;;;;;9.25;64.63574;1007.984;;;;
2019/10/31 08:33:29;;;;;;;26.9;17.8;;;;;;;9.41;64.22754;1007.956;;;;
2019/10/31 08:35:54;;;;;;;24.7;17.3;;;;;;;9.43;64.1377;1008.022;;;;
2019/10/31 08:38:19;;;;;;;26;17.5;;;;;;;9.65;63.51855;1007.981;;;;
2019/10/31 08:40:44;;;;;;;26;17.7;;;;;;;9.89;62.29688;1008.04;;;;
2019/10/31 08:43:09;;;;;;;27.8;18.5;;;;;;;10.41;61.7998;1008.036;;;;
2019/10/31 08:45:34;;;;;;;23.8;16.6;;;;;;;10.29;61.70215;1007.981;;;;
2019/10/31 08:47:59;;;;;;;24.9;17;;;;;;;10.88;59.67871;1007.977;;;;
2019/10/31 08:50:24;;;;;;;24.7;17.1;;;;;;;10.25;61.54785;1007.938;;;;
2019/10/31 08:52:49;;;;;;;24.8;16.9;;;;;;;10.59;60.84082;1007.961;;;;
2019/10/31 08:55:15;;;;;;;26.3;18;;;;;;;10.64;60.73438;1007.91;;;;
2019/10/31 08:57:40;;;;;;;27.3;17.8;;;;;;;10.6;60.5332;1007.902;;;;
2019/10/31 09:00:05;;;;;;;27.4;18.3;;;;;;;10.19;62.19238;1007.911;;;;
2019/10/31 09:02:30;;;;;;;25;17.6;;;;;;;11.02;59.91504;1007.937;;;;
2019/10/31 09:04:55;;;;;;;26.4;17.9;;;;;;;10.98;59.57813;1007.929;;;;
2019/10/31 09:07:20;;;;;;;26.8;18;;;;;;;10.68;60.21289;1007.875;;;;
2019/10/31 09:09:45;;;;;;;28.5;18.4;;;;;;;10.56;61.00879;1007.932;;;;
2019/10/31 09:12:10;;;;;;;26.3;17.6;;;;;;;11.18;59.54883;1007.89;;;;
2019/10/31 09:14:35;;;;;;;28.9;19;;;;;;;10.72;60.90625;1007.921;;;;
2019/10/31 09:17:01;;;;;;;26.7;18.1;;;;;;;11.09;59.89063;1007.965;;;;
2019/10/31 09:19:26;;;;;;;26.7;18.2;;;;;;;11.39;58.60254;1008.003;;;;
2019/10/31 09:21:51;;;;;;;25.9;17.9;;;;;;;10.74;60.06152;1007.984;;;;
2019/10/31 09:24:16;;;;;;;26.4;17.9;;;;;;;11.36;59.27539;1007.977;;;;
2019/10/31 09:26:41;;;;;;;25.7;17.9;;;;;;;11.08;59.3291;1008.016;;;;
2019/10/31 09:29:06;;;;;;;28.5;19.1;;;;;;;10.44;61.64551;1007.918;;;;
2019/10/31 09:31:31;;;;;;;27.4;18.8;;;;;;;11.2;59.6543;1007.908;;;;
2019/10/31 09:33:56;;;;;;;27;18.5;;;;;;;11.57;58.32813;1007.917;;;;
2019/10/31 09:36:21;;;;;;;27.3;18.8;;;;;;;11.96;57.39258;1007.965;;;;
2019/10/31 09:38:46;;;;;;;27.2;18.6;;;;;;;11.42;58.82422;1007.874;;;;
2019/10/31 09:41:12;;;;;;;27.2;18.6;;;;;;;11.55;58.66992;1007.847;;;;
2019/10/31 09:43:37;;;;;;;26.5;18.2;;;;;;;11.37;59.43652;1007.856;;;;
2019/10/31 09:46:02;;;;;;;28;18.1;;;;;;;11.37;59.79297;1007.801;;;;
2019/10/31 09:48:27;;;;;;;28.9;18.7;;;;;;;11.31;59.8418;1007.857;;;;
2019/10/31 09:50:52;;;;;;;26.7;18.1;;;;;;;11.23;60.34668;1007.839;;;;
2019/10/31 09:53:17;;;;;;;26.5;19.2;;;;;;;10.98;61.35547;1007.837;;;;
2019/10/31 09:55:42;;;;;;;28.8;19.5;;;;;;;10.91;61.6875;1007.812;;;;
2019/10/31 09:58:07;;;;;;;28;19;;;;;;;11.12;61.14355;1007.755;;;;
2019/10/31 10:00:32;;;;;;;26.8;19.1;;;;;;;11.21;61.26074;1007.77;;;;
2019/10/31 10:02:58;;;;;;;28.6;20.1;;;;;;;11.18;61.1875;1007.753;;;;
2019/10/31 10:05:23;;;;;;;27.5;18.9;;;;;;;11.19;61.28125;1007.713;;;;
2019/10/31 10:07:48;;;;;;;28.1;19.5;;;;;;;11.15;61.84863;1007.675;;;;
2019/10/31 10:10:13;;;;;;;28.3;19.8;;;;;;;10.87;62.7832;1007.666;;;;
2019/10/31 10:12:38;;;;;;;28.8;19.3;;;;;;;10.98;62.47754;1007.71;;;;
2019/10/31 10:15:03;;;;;;;27.9;19.3;;;;;;;10.84;62.66406;1007.717;;;;
2019/10/31 10:17:28;;;;;;;28;19.6;;;;;;;10.87;62.70215;1007.681;;;;
2019/10/31 10:19:54;;;;;;;30.9;20.3;;;;;;;10.8;63.04688;1007.696;;;;
2019/10/31 10:22:19;;;;;;;29.8;19.7;;;;;;;10.84;62.96191;1007.593;;;;
2019/10/31 10:24:44;;;;;;;27.9;19.3;;;;;;;10.7;63.32031;1007.644;;;;
2019/10/31 10:27:09;;;;;;;27.4;19.6;;;;;;;10.6;63.83105;1007.564;;;;
2019/10/31 10:29:34;;;;;;;33.6;20.2;;;;;;;10.55;64.70605;1007.53;;;;
2019/10/31 10:31:59;;;;;;;27.8;19;;;;;;;10.68;64.33496;1007.491;;;;
2019/10/31 10:34:24;;;;;;;28.6;19.5;;;;;;;10.58;64.36523;1007.505;;;;
2019/10/31 10:36:49;;;;;;;28.6;19.8;;;;;;;10.4;65.67676;1007.512;;;;
2019/10/31 10:39:14;;;;;;;28.7;19.4;;;;;;;10.24;66.3291;1007.555;;;;
2019/10/31 10:41:40;;;;;;;30.9;20.1;;;;;;;10.06;67.05566;1007.514;;;;
2019/10/31 10:44:05;;;;;;;28.7;19.4;;;;;;;9.99;67.78906;1007.516;;;;
2019/10/31 10:46:30;;;;;;;29;20;;;;;;;9.74;68.49121;1007.417;;;;
2019/10/31 10:48:55;;;;;;;28.8;20.1;;;;;;;9.99;68.41699;1007.45;;;;
2019/10/31 10:51:20;;;;;;;30.8;20.1;;;;;;;9.95;68.20508;1007.33;;;;
2019/10/31 10:53:45;;;;;;;31.2;20.8;;;;;;;9.87;69.03809;1007.299;;;;
2019/10/31 10:56:10;;;;;;;28.8;20.3;;;;;;;10.14;68.06348;1007.272;;;;
2019/10/31 10:58:35;;;;;;;32;21.1;;;;;;;10.11;67.7832;1007.228;;;;
2019/10/31 11:01:00;;;;;;;30.4;20.5;;;;;;;9.91;68.78125;1007.255;;;;
2019/10/31 11:03:26;;;;;;;28;18.9;;;;;;;9.77;68.69141;1007.294;;;;
2019/10/31 11:05:51;;;;;;;30.5;20.1;;;;;;;9.7;69.30762;1007.199;;;;
2019/10/31 11:08:16;;;;;;;32.6;21.1;;;;;;;9.6;69.6123;1007.146;;;;
2019/10/31 11:10:41;;;;;;;30.9;20.4;;;;;;;9.58;69.50488;1007.2;;;;
2019/10/31 11:13:06;;;;;;;32;20.9;;;;;;;9.62;69.42188;1007.108;;;;
2019/10/31 11:15:31;;;;;;;31.7;21;;;;;;;9.76;69.39648;1007.155;;;;
2019/10/31 11:17:56;;;;;;;31.1;20.9;;;;;;;9.91;68.96387;1007.14;;;;
2019/10/31 11:20:21;;;;;;;31.8;20.4;;;;;;;9.74;69.61133;1007.069;;;;
2019/10/31 11:22:46;;;;;;;31.8;20.1;;;;;;;9.8;69.45117;1007.075;;;;
2019/10/31 11:25:12;;;;;;;30.3;20;;;;;;;9.9;69.18164;1007.027;;;;
2019/10/31 11:27:37;;;;;;;31.1;20.4;;;;;;;9.96;68.60645;1007.029;;;;
2019/10/31 11:30:02;;;;;;;31.1;20;;;;;;;9.8;68.76367;1007.015;;;;
2019/10/31 11:32:27;;;;;;;30.1;19.8;;;;;;;9.9;69.33984;1007.028;;;;
2019/10/31 11:34:52;;;;;;;31.3;20.6;;;;;;;9.99;68.74805;1006.932;;;;
2019/10/31 11:37:17;;;;;;;31;20.3;;;;;;;10;68.74023;1006.943;;;;
2019/10/31 11:39:42;;;;;;;32.1;20.5;;;;;;;10.12;68.28809;1007.016;;;;
2019/10/31 11:42:07;;;;;;;30.2;19.8;;;;;;;9.95;68.30859;1006.902;;;;
2019/10/31 11:44:33;;;;;;;31.3;19.5;;;;;;;10.08;67.98535;1006.858;;;;
2019/10/31 11:47:01;;;;;;;30.5;19.7;;;;;;;10.02;68.41113;1006.914;;;;
2019/10/31 11:49:26;;;;;;;28.9;19.8;;;;;;;10.08;68.2041;1006.866;;;;
2019/10/31 11:51:51;;;;;;;30.2;20.8;;;;;;;10.19;67.91211;1006.894;;;;
2019/10/31 11:54:16;;;;;;;30.3;20.3;;;;;;;10.19;67.78613;1006.829;;;;
2019/10/31 11:56:41;;;;;;;31.2;20.2;;;;;;;10.33;67.66992;1006.788;;;;
2019/10/31 11:59:06;;;;;;;32.5;20.8;;;;;;;10.29;67.50391;1006.718;;;;
2019/10/31 12:01:31;;;;;;;32.8;20.4;;;;;;;10.4;67.32617;1006.699;;;;
2019/10/31 12:03:56;;;;;;;31.4;20.8;;;;;;;10.36;67.55957;1006.759;;;;
2019/10/31 12:06:21;;;;;;;31.4;20.5;;;;;;;10.32;67.62305;1006.756;;;;
2019/10/31 12:08:47;;;;;;;31.4;20.6;;;;;;;10.38;67.49414;1006.718;;;;
2019/10/31 12:11:12;;;;;;;33.6;21.5;;;;;;;10.48;67.23633;1006.61;;;;
2019/10/31 12:13:37;;;;;;;31.1;20.4;;;;;;;10.68;67.24414;1006.632;;;;
2019/10/31 12:16:02;;;;;;;33.5;20.8;;;;;;;10.71;66.07031;1006.63;;;;
2019/10/31 12:18:27;;;;;;;31.1;19.7;;;;;;;10.59;66.36035;1006.596;;;;
2019/10/31 12:20:52;;;;;;;32.4;20.3;;;;;;;10.59;66.40527;1006.518;;;;
2019/10/31 12:23:18;;;;;;;31.4;20.6;;;;;;;10.74;66.63574;1006.477;;;;
2019/10/31 12:25:42;;;;;;;30.8;20.4;;;;;;;10.79;66.06836;1006.47;;;;
2019/10/31 12:28:07;;;;;;;29.3;19.7;;;;;;;10.81;66.17578;1006.454;;;;
2019/10/31 12:30:32;;;;;;;30.3;20.1;;;;;;;10.89;66.1416;1006.411;;;;
2019/10/31 12:32:57;;;;;;;31.7;20.8;;;;;;;11.04;65.48926;1006.386;;;;
2019/10/31 12:35:23;;;;;;;31.9;19.4;;;;;;;11.1;65.11914;1006.347;;;;
2019/10/31 12:37:48;;;;;;;32.8;20.9;;;;;;;11.02;65.40527;1006.363;;;;
2019/10/31 12:40:13;;;;;;;33;20.8;;;;;;;11.08;65.50781;1006.286;;;;
2019/10/31 12:42:38;;;;;;;31.3;20.1;;;;;;;11.25;65.41699;1006.356;;;;
2019/10/31 12:45:03;;;;;;;32.2;20.5;;;;;;;11.09;65.32422;1006.28;;;;
2019/10/31 12:47:28;;;;;;;30.6;20;;;;;;;11.12;64.98438;1006.368;;;;
2019/10/31 12:49:53;;;;;;;31.6;20.7;;;;;;;11.15;64.9082;1006.374;;;;
2019/10/31 12:52:18;;;;;;;32.2;20.7;;;;;;;11.1;65.31543;1006.299;;;;
2019/10/31 12:54:43;;;;;;;31.8;20.1;;;;;;;11.05;65.46777;1006.252;;;;
2019/10/31 12:57:08;;;;;;;32.6;20.5;;;;;;;11.1;65.33789;1006.267;;;;
2019/10/31 12:59:34;;;;;;;29.2;19.1;;;;;;;11.13;65.06738;1006.211;;;;
2019/10/31 13:01:59;;;;;;;31.5;19.9;;;;;;;11.11;64.82324;1006.19;;;;
2019/10/31 13:04:24;;;;;;;30.7;19.6;;;;;;;11.26;64.67285;1006.111;;;;
2019/10/31 13:06:49;;;;;;;31.1;19.7;;;;;;;11.25;64.29395;1006.183;;;;
2019/10/31 13:09:14;;;;;;;35.1;21.3;;;;;;;11.16;64.64844;1006.125;;;;
2019/10/31 13:11:39;;;;;;;34.6;20.9;;;;;;;11.14;64.93066;1006.16;;;;
2019/10/31 13:14:04;;;;;;;32.7;20.5;;;;;;;11.22;64.54199;1006.167;;;;
2019/10/31 13:16:31;;;;;;;29.9;19.1;;;;;;;11.23;64.54297;1006.157;;;;
2019/10/31 13:18:55;;;;;;;31.4;19.9;;;;;;;11.23;64.80664;1006.082;;;;
2019/10/31 13:21:20;;;;;;;31.5;20;;;;;;;11.24;64.15625;1006.163;;;;
2019/10/31 13:23:45;;;;;;;31.9;20.3;;;;;;;11.28;64.61816;1006.126;;;;
2019/10/31 13:26:10;;;;;;;28.3;19.7;;;;;;;11.34;64.84766;1006.104;;;;
2019/10/31 13:28:35;;;;;;;32.7;19.9;;;;;;;11.27;64.46777;1006.161;;;;
2019/10/31 13:31:00;;;;;;;32.1;20.2;;;;;;;11.27;64.36523;1006.085;;;;
2019/10/31 13:33:26;;;;;;;33.6;20.8;;;;;;;11.29;64.2998;1006.037;;;;
2019/10/31 13:35:51;;;;;;;30.4;19.4;;;;;;;11.36;64.66504;1006.072;;;;
2019/10/31 13:38:16;;;;;;;31.3;19.4;;;;;;;11.53;64.38086;1006.01;;;;
2019/10/31 13:40:42;;;;;;;32.9;20;;;;;;;11.58;63.8623;1006.021;;;;
2019/10/31 13:43:07;;;;;;;28.7;19.1;;;;;;;11.62;63.70605;1006.015;;;;
2019/10/31 13:45:32;;;;;;;30.6;19.6;;;;;;;11.55;64.05078;1006.062;;;;
2019/10/31 13:47:57;;;;;;;31.2;19.6;;;;;;;11.54;63.61328;1006.053;;;;
2019/10/31 13:50:22;;;;;;;29.4;19;;;;;;;11.52;63.90918;1006.066;;;;
2019/10/31 13:52:47;;;;;;;30.3;19.4;;;;;;;11.53;64.01367;1006.038;;;;
2019/10/31 13:55:13;;;;;;;32.7;19.5;;;;;;;11.48;64.25977;1005.982;;;;
2019/10/31 13:57:38;;;;;;;31.5;19.2;;;;;;;11.58;64.00977;1006.028;;;;
2019/10/31 14:00:03;;;;;;;30.1;18.9;;;;;;;11.53;63.91016;1006.009;;;;
2019/10/31 14:02:28;;;;;;;30.9;19;;;;;;;11.51;63.74609;1005.961;;;;